Time;durP1;ratioP1;P1;durP2;ratioP2;P2;SDS_P1;SDS_P2;PMS_P1;PMS_P2;Temp;Humidity;BMP_temperature;BMP_pressure;BME280_temperature;BME280_humidity;BME280_pressure;Samples;Min_cycle;Max_cycle;Signal;HPM_P1;HPM_P2
2022/06/22 00:02:22;;;;;;;7.93;4.78;;;13.50;99.90;;;;;;5071066;28;20070;-63
2022/06/22 00:04:55;;;;;;;7.25;4.32;;;13.50;99.90;;;;;;5073347;28;20571;-63
2022/06/22 00:07:31;;;;;;;7.68;4.78;;;13.40;99.90;;;;;;5053982;28;20097;-63
2022/06/22 00:10:08;;;;;;;5.50;4.22;;;13.40;99.90;;;;;;5071094;28;20484;-63
2022/06/22 00:12:34;;;;;;;9.00;5.28;;;13.30;99.90;;;;;;5071914;28;20040;-63
2022/06/22 00:15:02;;;;;;;6.07;4.35;;;13.20;99.90;;;;;;5071851;28;20446;-62
2022/06/22 00:17:35;;;;;;;6.40;4.40;;;13.20;99.90;;;;;;5071679;28;20064;-63
2022/06/22 00:20:07;;;;;;;7.40;4.93;;;13.10;99.90;;;;;;5071351;28;20553;-63
2022/06/22 00:22:52;;;;;;;;;;;13.00;99.90;;;;;;5072981;28;20044;-62
2022/06/22 00:25:36;;;;;;;7.70;4.57;;;12.90;99.90;;;;;;5070883;28;20320;-62
2022/06/22 00:28:24;;;;;;;6.30;4.90;;;12.90;99.90;;;;;;5071438;28;20045;-64
2022/06/22 00:30:50;;;;;;;7.50;5.22;;;12.80;99.90;;;;;;5070509;28;20044;-64
2022/06/22 00:33:26;;;;;;;8.27;5.35;;;12.80;99.90;;;;;;5072779;28;20442;-63
2022/06/22 00:35:51;;;;;;;6.15;5.38;;;12.80;99.90;;;;;;5068648;28;20049;-63
2022/06/22 00:38:29;;;;;;;6.88;5.20;;;12.80;99.90;;;;;;5070932;28;20059;-62
2022/06/22 00:41:00;;;;;;;9.77;5.35;;;12.70;99.90;;;;;;5069970;28;20068;-62
2022/06/22 00:43:30;;;;;;;8.63;5.00;;;12.70;99.90;;;;;;5070844;28;20160;-62
2022/06/22 00:45:57;;;;;;;7.75;4.72;;;12.70;99.90;;;;;;5069402;28;20128;-63
2022/06/22 00:48:31;;;;;;;8.30;4.45;;;12.70;99.90;;;;;;5071450;28;20514;-63
2022/06/22 00:51:06;;;;;;;7.40;4.55;;;12.60;99.90;;;;;;5070056;28;20048;-62
2022/06/22 00:53:34;;;;;;;5.80;4.68;;;12.60;99.90;;;;;;5070338;28;20056;-63
2022/06/22 00:56:18;;;;;;;5.93;4.50;;;12.50;99.90;;;;;;5068403;28;20079;-64
2022/06/22 00:59:05;;;;;;;5.72;4.20;;;12.40;99.90;;;;;;5087502;28;20376;-64
2022/06/22 01:02:01;;;;;;;5.65;3.92;;;12.40;99.90;;;;;;5071655;28;20056;-62
2022/06/22 01:04:54;;;;;;;5.85;3.65;;;12.30;99.90;;;;;;5069814;28;20040;-63
2022/06/22 01:07:59;;;;;;;2.95;2.10;;;12.30;99.90;;;;;;5071022;28;20068;-63
2022/06/22 01:10:47;;;;;;;2.03;1.75;;;12.10;99.90;;;;;;5070416;28;20392;-62
2022/06/22 01:13:46;;;;;;;2.78;2.58;;;12.10;99.90;;;;;;5071673;28;20036;-62
2022/06/22 01:16:27;;;;;;;3.30;3.00;;;12.00;99.90;;;;;;5028422;28;20041;-62
2022/06/22 01:19:13;;;;;;;2.58;2.35;;;11.90;99.90;;;;;;5013286;28;20045;-63
2022/06/22 01:21:43;;;;;;;3.47;2.88;;;11.80;99.90;;;;;;5029021;28;20041;-62
2022/06/22 01:24:34;;;;;;;4.75;2.67;;;11.70;99.90;;;;;;5029053;28;20100;-63
2022/06/22 01:27:20;;;;;;;3.47;3.17;;;11.70;99.90;;;;;;5027578;28;20073;-63
2022/06/22 01:29:52;;;;;;;3.58;3.28;;;11.60;99.90;;;;;;5013473;28;20041;-62
2022/06/22 01:32:28;;;;;;;3.75;3.40;;;11.60;99.90;;;;;;5011947;28;20053;-64
2022/06/22 01:35:01;;;;;;;3.58;3.28;;;11.50;99.90;;;;;;5012100;28;20045;-62
2022/06/22 01:37:31;;;;;;;5.28;4.10;;;11.50;99.90;;;;;;5028996;28;20041;-63
2022/06/22 01:40:11;;;;;;;3.75;3.45;;;11.50;99.90;;;;;;5028916;28;20435;-63
2022/06/22 01:42:49;;;;;;;3.55;3.25;;;11.50;99.90;;;;;;5028656;28;20141;-63
2022/06/22 01:45:37;;;;;;;2.95;2.75;;;11.40;99.90;;;;;;5028726;28;20037;-62
2022/06/22 01:48:26;;;;;;;2.83;2.47;;;11.40;99.90;;;;;;5012058;28;20035;-64
2022/06/22 01:51:09;;;;;;;2.72;2.53;;;11.30;99.90;;;;;;5012959;28;20053;-63
2022/06/22 01:53:49;;;;;;;7.55;6.00;;;11.20;99.90;;;;;;5062766;28;20411;-63
2022/06/22 01:56:39;;;;;;;6.53;5.72;;;11.20;99.90;;;;;;5069784;28;20123;-63
2022/06/22 01:59:13;;;;;;;8.40;5.90;;;11.10;99.90;;;;;;5070104;28;20036;-63
2022/06/22 02:01:51;;;;;;;7.68;6.30;;;11.10;99.90;;;;;;5068507;28;20049;-63
2022/06/22 02:04:41;;;;;;;9.50;6.78;;;11.00;99.90;;;;;;5069851;28;20044;-63
2022/06/22 02:10:23;;;;;;;4.30;3.80;;;10.90;99.90;;;;;;5070103;28;20036;-63
2022/06/22 02:13:23;;;;;;;8.07;4.80;;;10.80;99.90;;;;;;5069271;28;20038;-64
2022/06/22 02:16:10;;;;;;;4.93;4.50;;;10.80;99.90;;;;;;5067398;28;20052;-63
2022/06/22 02:18:47;;;;;;;5.70;5.20;;;10.70;99.90;;;;;;5068367;28;20045;-63
2022/06/22 02:21:19;;;;;;;11.05;6.10;;;10.70;99.90;;;;;;5068266;28;20050;-63
2022/06/22 02:23:49;;;;;;;6.70;6.10;;;10.60;99.90;;;;;;5069300;28;20041;-63
2022/06/22 02:26:20;;;;;;;6.03;5.43;;;10.50;99.90;;;;;;5070612;28;20040;-62
2022/06/22 02:28:46;;;;;;;5.57;5.07;;;10.50;99.90;;;;;;5070683;28;20040;-64
2022/06/22 02:31:12;;;;;;;5.35;4.80;;;10.40;99.90;;;;;;5067368;28;20047;-62
2022/06/22 02:33:43;;;;;;;6.88;5.43;;;10.40;99.90;;;;;;5070594;28;20055;-62
2022/06/22 02:36:11;;;;;;;5.45;4.95;;;10.30;99.90;;;;;;5068035;28;20044;-64
2022/06/22 02:38:37;;;;;;;6.55;5.95;;;10.30;99.90;;;;;;5069247;28;20094;-64
2022/06/22 02:46:37;;;;;;;15.75;6.50;;;10.10;99.90;;;;;;5069493;28;20040;-63
2022/06/22 02:49:10;;;;;;;13.38;6.40;;;10.10;99.90;;;;;;5069845;28;20036;-62
2022/06/22 02:51:46;;;;;;;10.40;6.75;;;10.00;99.90;;;;;;5070210;28;20483;-62
2022/06/22 02:54:33;;;;;;;9.93;6.75;;;10.00;99.90;;;;;;5067628;28;20048;-63
2022/06/22 02:57:15;;;;;;;11.40;6.63;;;10.00;99.90;;;;;;5069666;28;20036;-62
2022/06/22 02:59:42;;;;;;;6.05;5.55;;;9.90;99.90;;;;;;5067539;28;20060;-63
2022/06/22 03:02:09;;;;;;;6.22;5.63;;;9.90;99.90;;;;;;5067897;28;20233;-63
2022/06/22 03:04:35;;;;;;;5.90;4.90;;;9.90;99.90;;;;;;5069153;28;20536;-64
2022/06/22 03:07:03;;;;;;;4.93;4.53;;;9.80;99.90;;;;;;5070048;28;20028;-63
2022/06/22 03:09:29;;;;;;;5.07;4.65;;;9.80;99.90;;;;;;5068860;28;20499;-63
2022/06/22 03:11:58;;;;;;;5.78;5.18;;;9.80;99.90;;;;;;5069896;28;20123;-63
2022/06/22 03:14:45;;;;;;;8.30;5.85;;;9.90;99.90;;;;;;5066267;28;20383;-62
2022/06/22 03:17:14;;;;;;;7.07;5.47;;;9.80;99.90;;;;;;5069817;28;20044;-63
2022/06/22 03:19:48;;;;;;;7.40;5.40;;;9.80;99.90;;;;;;5069220;28;20032;-62
2022/06/22 03:22:22;;;;;;;10.05;5.63;;;9.80;99.90;;;;;;5068498;28;20560;-64
2022/06/22 03:25:05;;;;;;;4.80;4.40;;;9.80;99.90;;;;;;5066900;28;20106;-62
2022/06/22 03:27:35;;;;;;;4.80;4.40;;;9.80;99.90;;;;;;5064957;28;20522;-62
2022/06/22 03:30:11;;;;;;;5.47;4.00;;;9.80;99.90;;;;;;5068546;28;20131;-62
2022/06/22 03:32:44;;;;;;;6.43;4.10;;;9.90;99.90;;;;;;5068135;28;20162;-62
2022/06/22 03:35:14;;;;;;;11.40;5.20;;;9.90;99.90;;;;;;5069711;28;20162;-62
2022/06/22 03:37:48;;;;;;;18.85;5.15;;;9.90;99.90;;;;;;5068287;28;20446;-64
2022/06/22 03:40:32;;;;;;;13.35;5.65;;;9.90;99.90;;;;;;5067084;28;20047;-63
2022/06/22 03:43:29;;;;;;;14.10;6.65;;;9.80;99.90;;;;;;5069632;28;20066;-63
2022/06/22 03:46:03;;;;;;;15.27;5.80;;;9.70;99.90;;;;;;5068052;28;20058;-62
2022/06/22 03:48:38;;;;;;;31.63;5.95;;;9.70;99.90;;;;;;5068533;28;20066;-62
2022/06/22 03:51:13;;;;;;;30.25;5.95;;;9.70;99.90;;;;;;5067620;28;20491;-63
2022/06/22 03:54:05;;;;;;;32.53;6.50;;;9.70;99.90;;;;;;5069326;28;20087;-64
2022/06/22 03:56:35;;;;;;;25.73;6.05;;;9.60;99.90;;;;;;5066882;28;20159;-63
2022/06/22 03:59:04;;;;;;;19.00;5.72;;;9.60;99.90;;;;;;5066538;28;20041;-63
2022/06/22 04:01:30;;;;;;;15.55;6.30;;;9.60;99.90;;;;;;5067745;28;20036;-62
2022/06/22 04:03:56;;;;;;;8.27;5.63;;;9.60;99.90;;;;;;5051207;28;20395;-63
2022/06/22 04:06:31;;;;;;;14.02;6.03;;;9.70;99.90;;;;;;5068322;28;20036;-62
2022/06/22 04:08:57;;;;;;;11.30;6.75;;;9.70;99.90;;;;;;5050227;28;20046;-62
2022/06/22 04:11:43;;;;;;;7.47;6.78;;;9.80;99.90;;;;;;5069392;28;20043;-62
2022/06/22 04:14:39;;;;;;;7.13;6.53;;;9.90;99.90;;;;;;5066192;28;20049;-62
2022/06/22 04:17:23;;;;;;;7.22;6.53;;;10.00;99.90;;;;;;5068736;28;20040;-62
2022/06/22 04:20:02;;;;;;;7.63;6.90;;;10.10;99.90;;;;;;5050690;28;20099;-62
2022/06/22 04:22:31;;;;;;;8.75;7.05;;;10.20;99.90;;;;;;5068679;28;20028;-62
2022/06/22 04:25:30;;;;;;;7.10;6.40;;;10.30;99.90;;;;;;5068093;28;20047;-63
2022/06/22 04:27:58;;;;;;;7.95;7.15;;;10.40;99.90;;;;;;5067056;28;20479;-63
2022/06/22 04:30:34;;;;;;;10.32;7.70;;;10.50;99.90;;;;;;5066034;28;20392;-63
2022/06/22 04:33:06;;;;;;;9.43;8.07;;;10.50;99.90;;;;;;5068944;28;20068;-63
2022/06/22 04:35:48;;;;;;;9.48;7.63;;;10.70;99.90;;;;;;5083012;28;20597;-63
2022/06/22 04:38:38;;;;;;;10.07;7.93;;;10.80;99.90;;;;;;5067670;28;20056;-63
2022/06/22 04:41:13;;;;;;;9.80;8.80;;;10.90;99.90;;;;;;5069639;28;20036;-63
2022/06/22 04:43:39;;;;;;;11.40;9.23;;;11.00;99.90;;;;;;5071176;28;20037;-62
2022/06/22 04:46:08;;;;;;;9.35;8.32;;;11.20;99.90;;;;;;5072490;28;20036;-63
2022/06/22 04:48:47;;;;;;;10.32;9.20;;;11.30;99.90;;;;;;5072184;28;20041;-63
2022/06/22 04:51:44;;;;;;;11.73;9.80;;;11.50;99.90;;;;;;5069708;28;20044;-62
2022/06/22 04:54:34;;;;;;;12.77;9.20;;;11.70;99.90;;;;;;5030025;28;20683;-62
2022/06/22 04:57:11;;;;;;;12.82;9.32;;;11.90;99.90;;;;;;5029524;28;20495;-63
2022/06/22 04:59:38;;;;;;;10.30;9.23;;;12.00;99.90;;;;;;5013619;28;20045;-63
2022/06/22 05:02:09;;;;;;;11.40;9.40;;;12.20;99.90;;;;;;5012523;28;20403;-63
2022/06/22 05:04:42;;;;;;;9.95;8.95;;;12.30;99.90;;;;;;5011985;28;20496;-63
2022/06/22 05:07:43;;;;;;;10.85;9.20;;;12.50;99.90;;;;;;5029632;28;20033;-64
2022/06/22 05:10:48;;;;;;;10.93;8.75;;;12.70;99.90;;;;;;5012263;28;20073;-63
2022/06/22 05:13:29;;;;;;;13.18;9.07;;;12.90;99.90;;;;;;5005997;28;20069;-63
2022/06/22 05:15:56;;;;;;;12.40;9.10;;;13.00;99.90;;;;;;5013339;28;20508;-63
2022/06/22 05:18:28;;;;;;;11.80;9.18;;;13.20;99.90;;;;;;5012463;28;20124;-63
2022/06/22 05:21:03;;;;;;;10.35;9.23;;;13.40;99.90;;;;;;5012992;28;20044;-63
2022/06/22 05:23:31;;;;;;;12.65;8.98;;;13.50;99.90;;;;;;5012011;28;20111;-64
2022/06/22 05:26:03;;;;;;;11.38;8.73;;;13.70;99.90;;;;;;5012691;28;20069;-63
2022/06/22 05:28:37;;;;;;;12.73;9.02;;;13.80;99.90;;;;;;5010899;28;20045;-62
2022/06/22 05:31:10;;;;;;;13.05;9.07;;;14.00;99.90;;;;;;5057671;28;20074;-63
2022/06/22 05:33:38;;;;;;;11.52;9.60;;;14.10;99.90;;;;;;5070015;28;20044;-64
2022/06/22 05:36:11;;;;;;;11.05;8.88;;;14.20;99.90;;;;;;5071705;28;20533;-63
2022/06/22 05:38:38;;;;;;;;;;;14.40;99.90;;;;;;5071934;28;20098;-64
2022/06/22 05:41:07;;;;;;;13.23;8.18;;;14.50;99.90;;;;;;5069906;28;20856;-64
2022/06/22 05:43:35;;;;;;;11.23;9.23;;;14.60;99.90;;;;;;5069270;28;20174;-63
2022/06/22 05:46:06;;;;;;;14.98;10.05;;;14.80;99.90;;;;;;5070992;28;20036;-63
2022/06/22 05:48:38;;;;;;;15.13;10.00;;;15.00;99.90;;;;;;5069961;28;20043;-63
2022/06/22 05:51:13;;;;;;;11.73;9.48;;;15.10;99.90;;;;;;5069759;28;20085;-64
2022/06/22 05:53:56;;;;;;;10.70;8.40;;;15.30;99.90;;;;;;5068246;28;20036;-63
2022/06/22 05:56:39;;;;;;;13.02;8.77;;;15.40;99.90;;;;;;5069746;28;20066;-63
2022/06/22 05:59:15;;;;;;;11.35;8.70;;;15.50;99.90;;;;;;5067748;28;20130;-63
2022/06/22 06:02:09;;;;;;;14.32;8.57;;;15.70;99.90;;;;;;5070112;28;20040;-64
2022/06/22 06:04:57;;;;;;;12.05;8.30;;;15.80;99.90;;;;;;5066337;28;20060;-62
2022/06/22 06:07:30;;;;;;;11.07;8.23;;;16.00;99.90;;;;;;5070256;28;20079;-64
2022/06/22 06:09:56;;;;;;;13.32;8.88;;;16.10;99.90;;;;;;5069362;28;20040;-63
2022/06/22 06:12:31;;;;;;;12.35;8.18;;;16.20;99.90;;;;;;5070486;28;20111;-63
2022/06/22 06:14:57;;;;;;;15.93;8.93;;;16.30;99.90;;;;;;5067850;28;20080;-63
2022/06/22 06:17:57;;;;;;;12.02;9.35;;;16.40;99.90;;;;;;5068597;28;20051;-63
2022/06/22 06:20:35;;;;;;;10.32;6.90;;;16.60;99.90;;;;;;5053741;28;20076;-63
2022/06/22 06:23:11;;;;;;;10.30;6.88;;;16.70;99.90;;;;;;5030688;28;20049;-63
2022/06/22 06:28:41;;;;;;;7.07;5.45;;;17.00;99.90;;;;;;5057149;28;20445;-63
2022/06/22 06:31:25;;;;;;;12.32;5.45;;;17.10;99.90;;;;;;5046161;28;20053;-61
2022/06/22 06:33:52;;;;;;;7.15;5.13;;;17.20;99.90;;;;;;5029997;28;20439;-63
2022/06/22 06:36:24;;;;;;;9.30;5.10;;;17.30;99.90;;;;;;5031031;28;20049;-64
2022/06/22 06:39:00;;;;;;;8.98;5.18;;;17.40;99.90;;;;;;5047980;28;20503;-63
2022/06/22 06:41:41;;;;;;;7.28;4.00;;;17.50;99.90;;;;;;5048119;28;20132;-63
2022/06/22 06:44:18;;;;;;;8.15;4.60;;;17.60;99.90;;;;;;5031304;28;20056;-63
2022/06/22 06:46:51;;;;;;;8.45;4.35;;;17.80;99.90;;;;;;5047474;28;20033;-63
2022/06/22 06:49:24;;;;;;;6.55;3.20;;;17.90;99.90;;;;;;5047532;28;20053;-63
2022/06/22 06:51:58;;;;;;;4.30;3.05;;;18.10;99.90;;;;;;5031117;28;20135;-63
2022/06/22 06:54:41;;;;;;;5.95;3.22;;;18.20;99.90;;;;;;5031074;28;20369;-63
2022/06/22 06:57:17;;;;;;;5.63;3.15;;;18.30;99.90;;;;;;5068699;28;20053;-64
2022/06/22 06:59:46;;;;;;;6.30;3.17;;;18.50;99.90;;;;;;5068324;28;20061;-64
2022/06/22 07:02:17;;;;;;;7.00;3.63;;;18.60;99.90;;;;;;5069383;28;20048;-62
2022/06/22 07:04:44;;;;;;;7.43;4.57;;;18.60;99.90;;;;;;5068209;28;20044;-63
2022/06/22 07:07:33;;;;;;;8.07;4.35;;;18.70;99.90;;;;;;5069653;28;20109;-63
2022/06/22 07:10:04;;;;;;;6.32;3.85;;;18.80;99.90;;;;;;5068523;28;20047;-62
2022/06/22 07:12:37;;;;;;;6.22;3.80;;;18.90;99.90;;;;;;5068451;28;20446;-63
2022/06/22 07:15:05;;;;;;;6.82;3.92;;;19.00;99.90;;;;;;5069276;28;20028;-63
2022/06/22 07:17:32;;;;;;;7.65;4.40;;;19.10;99.90;;;;;;5067954;28;20503;-63
2022/06/22 07:20:22;;;;;;;6.90;3.80;;;19.20;99.90;;;;;;5069561;28;20041;-63
2022/06/22 07:22:52;;;;;;;10.77;3.38;;;19.30;99.90;;;;;;5067966;28;20495;-63
2022/06/22 07:25:36;;;;;;;6.22;3.42;;;19.40;99.90;;;;;;5069501;28;20037;-64
2022/06/22 07:28:10;;;;;;;7.80;3.25;;;19.60;99.90;;;;;;5067695;28;20040;-63
2022/06/22 07:30:54;;;;;;;6.88;4.32;;;19.60;99.90;;;;;;5069529;28;20035;-62
2022/06/22 07:33:19;;;;;;;8.32;4.63;;;19.80;99.90;;;;;;5069516;28;20047;-63
2022/06/22 07:35:58;;;;;;;7.47;4.03;;;19.90;99.90;;;;;;5068325;28;20041;-63
2022/06/22 07:38:31;;;;;;;5.60;3.10;;;19.90;99.90;;;;;;5067514;28;20048;-63
2022/06/22 07:43:42;;;;;;;5.25;2.88;;;20.10;99.90;;;;;;5069175;28;20080;-62
2022/06/22 07:46:16;;;;;;;6.53;3.08;;;20.10;99.90;;;;;;5069118;28;20470;-62
2022/06/22 07:48:46;;;;;;;6.47;3.03;;;20.30;99.90;;;;;;5068145;28;20590;-61
2022/06/22 07:51:22;;;;;;;3.92;2.58;;;20.40;99.90;;;;;;5067806;28;20110;-62
2022/06/22 07:53:55;;;;;;;6.13;2.30;;;20.50;99.90;;;;;;5050902;28;20072;-63
2022/06/22 07:56:38;;;;;;;5.00;2.80;;;20.60;99.90;;;;;;5067753;28;20083;-63
2022/06/22 07:59:10;;;;;;;5.85;2.95;;;20.70;99.90;;;;;;5067677;28;20048;-64
2022/06/22 08:01:40;;;;;;;4.32;2.22;;;20.90;99.90;;;;;;5067965;28;20430;-63
2022/06/22 08:04:18;;;;;;;5.45;2.50;;;21.00;99.90;;;;;;5068564;28;20094;-63
2022/06/22 08:06:57;;;;;;;8.02;2.60;;;21.00;99.90;;;;;;5068713;28;20040;-62
2022/06/22 08:09:36;;;;;;;9.43;2.85;;;21.10;99.90;;;;;;5068821;28;20086;-64
2022/06/22 08:12:13;;;;;;;5.47;2.50;;;21.20;99.90;;;;;;5069294;28;20497;-63
2022/06/22 08:14:43;;;;;;;5.75;2.63;;;21.40;99.90;;;;;;5071011;28;20045;-63
2022/06/22 08:17:20;;;;;;;5.18;2.20;;;21.60;99.90;;;;;;5072251;28;20036;-63
2022/06/22 08:19:47;;;;;;;2.60;1.83;;;21.60;99.90;;;;;;5071737;28;20037;-63
2022/06/22 08:22:13;;;;;;;3.40;2.03;;;21.70;99.90;;;;;;5073053;28;20043;-62
2022/06/22 08:24:44;;;;;;;3.72;2.05;;;21.80;99.90;;;;;;5072652;28;20036;-63
2022/06/22 08:27:20;;;;;;;4.40;1.77;;;21.90;99.90;;;;;;5072386;28;20110;-63
2022/06/22 08:29:48;;;;;;;4.25;1.85;;;21.90;99.90;;;;;;5072745;28;20659;-62
2022/06/22 08:32:33;;;;;;;4.28;1.50;;;22.00;99.90;;;;;;5071015;28;20040;-63
2022/06/22 08:35:09;;;;;;;2.42;1.38;;;22.00;98.30;;;;;;5071619;28;20079;-63
2022/06/22 08:37:47;;;;;;;2.70;1.65;;;22.00;98.00;;;;;;5070687;28;20059;-63
2022/06/22 08:40:21;;;;;;;3.70;1.60;;;22.10;96.30;;;;;;5072143;28;20040;-63
2022/06/22 08:42:57;;;;;;;3.42;1.50;;;22.10;96.30;;;;;;5070780;28;20083;-63
2022/06/22 08:45:45;;;;;;;4.35;1.50;;;22.10;97.10;;;;;;5070009;28;20047;-63
2022/06/22 08:48:25;;;;;;;2.20;1.27;;;22.20;96.30;;;;;;5072443;28;20094;-62
2022/06/22 08:51:06;;;;;;;4.32;1.48;;;22.10;94.90;;;;;;5070260;28;20131;-63
2022/06/22 08:53:40;;;;;;;4.13;1.50;;;22.40;95.90;;;;;;5072531;28;20028;-63
2022/06/22 08:56:16;;;;;;;2.90;1.50;;;22.60;95.80;;;;;;5071958;28;20036;-64
2022/06/22 08:58:53;;;;;;;2.47;1.33;;;22.80;95.20;;;;;;5072059;28;20047;-62
2022/06/22 09:01:40;;;;;;;2.95;1.30;;;22.90;95.00;;;;;;5069953;28;20076;-64
2022/06/22 09:04:28;;;;;;;3.92;1.38;;;23.00;93.50;;;;;;5070899;28;20044;-63
2022/06/22 09:06:58;;;;;;;3.65;1.00;;;23.20;93.50;;;;;;5070461;28;20372;-63
2022/06/22 09:09:52;;;;;;;2.22;0.95;;;23.30;93.50;;;;;;5070777;28;20052;-64
2022/06/22 09:12:55;;;;;;;3.30;0.73;;;23.50;93.30;;;;;;5070377;28;20052;-63
2022/06/22 09:15:40;;;;;;;1.88;0.95;;;23.70;92.10;;;;;;5071993;28;20503;-62
2022/06/22 09:18:15;;;;;;;1.42;0.80;;;23.80;92.00;;;;;;5070532;28;20040;-63
2022/06/22 09:21:13;;;;;;;1.75;0.73;;;23.90;91.50;;;;;;5071803;28;20071;-64
2022/06/22 09:24:00;;;;;;;1.52;0.90;;;24.00;91.00;;;;;;5049422;28;20056;-62
2022/06/22 09:26:55;;;;;;;1.08;0.70;;;24.10;89.40;;;;;;5071332;28;20047;-64
2022/06/22 09:30:01;;;;;;;2.90;0.80;;;24.10;90.30;;;;;;5070201;28;20059;-62
2022/06/22 09:32:36;;;;;;;1.90;0.70;;;24.30;91.20;;;;;;5012436;28;20071;-64
2022/06/22 09:35:19;;;;;;;1.73;0.70;;;24.40;90.30;;;;;;5029176;28;20042;-65
2022/06/22 09:38:12;;;;;;;1.52;0.63;;;24.40;87.60;;;;;;5028699;28;20049;-63
2022/06/22 09:40:56;;;;;;;0.70;0.60;;;24.60;89.30;;;;;;5028921;28;20084;-64
2022/06/22 09:43:24;;;;;;;1.60;0.80;;;24.80;88.30;;;;;;5028666;28;20118;-63
2022/06/22 09:46:09;;;;;;;1.05;0.60;;;25.00;87.10;;;;;;5028980;28;20041;-64
2022/06/22 09:48:37;;;;;;;2.67;0.88;;;25.20;84.10;;;;;;5028287;28;20549;-64
2022/06/22 09:51:21;;;;;;;1.27;0.57;;;25.30;84.40;;;;;;5028836;28;20124;-64
2022/06/22 09:54:00;;;;;;;2.30;0.60;;;25.30;83.10;;;;;;5012517;28;20547;-64
2022/06/22 09:56:50;;;;;;;2.38;0.70;;;25.40;82.30;;;;;;5028173;28;20048;-64
2022/06/22 09:59:23;;;;;;;1.52;0.80;;;25.40;82.50;;;;;;5028629;28;20068;-63
2022/06/22 10:02:11;;;;;;;1.58;0.98;;;25.40;82.20;;;;;;5028485;28;20057;-63
2022/06/22 10:05:13;;;;;;;2.97;0.80;;;25.40;83.80;;;;;;5010954;28;20037;-63
2022/06/22 10:08:06;;;;;;;2.15;1.00;;;25.60;82.70;;;;;;5027845;28;20072;-64
2022/06/22 10:10:45;;;;;;;3.88;0.85;;;25.50;80.30;;;;;;5064096;28;20041;-64
2022/06/22 10:13:45;;;;;;;2.67;0.80;;;25.70;80.10;;;;;;5070659;28;20123;-63
2022/06/22 10:16:45;;;;;;;4.03;1.48;;;25.80;79.80;;;;;;5011246;28;20063;-62
2022/06/22 10:19:26;;;;;;;1.52;0.95;;;25.90;80.00;;;;;;5028150;28;20041;-62
2022/06/22 10:22:20;;;;;;;1.23;0.90;;;25.90;78.70;;;;;;5014171;28;20049;-63
2022/06/22 10:25:02;;;;;;;4.53;1.10;;;26.00;78.90;;;;;;5011446;28;20044;-63
2022/06/22 10:27:39;;;;;;;2.72;1.02;;;26.00;78.20;;;;;;5028108;28;20175;-64
2022/06/22 10:30:15;;;;;;;1.95;1.00;;;26.20;78.90;;;;;;5027879;28;20045;-63
2022/06/22 10:33:00;;;;;;;1.80;0.88;;;26.20;78.00;;;;;;5026855;28;20084;-64
2022/06/22 10:35:35;;;;;;;1.85;0.80;;;26.30;78.10;;;;;;5011315;28;20103;-63
2022/06/22 10:38:16;;;;;;;2.78;1.15;;;26.30;77.50;;;;;;5027009;28;20179;-64
2022/06/22 10:46:50;;;;;;;;;;;26.60;77.60;;;;;;5026171;28;20037;-63
2022/06/22 10:49:36;;;;;;;3.90;1.30;;;26.70;78.90;;;;;;5026786;28;20010;-63
2022/06/22 10:52:27;;;;;;;3.30;1.38;;;26.90;76.80;;;;;;5010995;28;20049;-64
2022/06/22 10:55:14;;;;;;;2.42;1.17;;;26.90;75.30;;;;;;5026564;28;20045;-64
2022/06/22 10:57:40;;;;;;;2.22;1.10;;;26.80;75.50;;;;;;5027117;28;20046;-64
2022/06/22 11:00:06;;;;;;;1.70;1.00;;;26.80;75.40;;;;;;5010043;28;20500;-63
2022/06/22 11:03:10;;;;;;;3.40;1.17;;;26.80;75.50;;;;;;5010945;28;20048;-64
2022/06/22 11:06:09;;;;;;;1.13;0.90;;;26.90;76.70;;;;;;5026132;28;20060;-63
2022/06/22 11:09:08;;;;;;;3.05;1.45;;;26.90;75.70;;;;;;5027081;28;20030;-63
2022/06/22 11:11:49;;;;;;;2.22;1.35;;;26.90;75.40;;;;;;5023727;28;20046;-65
2022/06/22 11:14:29;;;;;;;5.53;1.13;;;26.80;74.40;;;;;;5026845;28;20037;-63
2022/06/22 11:17:25;;;;;;;3.67;1.00;;;26.80;75.00;;;;;;5027032;28;20295;-62
2022/06/22 11:20:27;;;;;;;1.88;1.05;;;26.80;73.40;;;;;;4928353;29;20177;-63
2022/06/22 11:22:56;;;;;;;;;;;26.80;73.40;;;;;;4930291;29;20115;-63
2022/06/22 11:31:52;;;;;;;3.17;1.00;;;26.60;69.90;;;;;;4946119;28;20367;-63
2022/06/22 11:35:02;;;;;;;1.70;0.90;;;26.60;69.70;;;;;;4985073;28;20046;-63
2022/06/22 11:37:51;;;;;;;3.10;1.10;;;26.50;68.30;;;;;;4993334;28;20042;-62
2022/06/22 11:40:37;;;;;;;2.08;0.93;;;26.40;69.70;;;;;;4987856;28;20062;-63
2022/06/22 11:43:46;;;;;;;1.48;0.73;;;26.40;70.90;;;;;;4979190;28;20057;-62
2022/06/22 11:46:35;;;;;;;1.65;0.90;;;26.40;68.10;;;;;;4939205;29;20051;-64
2022/06/22 11:49:17;;;;;;;2.33;0.90;;;26.20;67.10;;;;;;4945661;28;20058;-64
2022/06/22 11:52:04;;;;;;;5.75;1.20;;;26.10;68.60;;;;;;4951528;29;20043;-62
2022/06/22 11:55:03;;;;;;;2.20;0.82;;;26.10;68.40;;;;;;4951062;28;20125;-65
2022/06/22 11:57:35;;;;;;;2.00;1.05;;;26.10;69.70;;;;;;4987370;28;20053;-63
2022/06/22 12:00:38;;;;;;;4.13;1.20;;;26.10;68.80;;;;;;5028783;28;20041;-63
2022/06/22 12:03:39;;;;;;;3.65;1.30;;;26.10;70.60;;;;;;4916732;29;20055;-62
2022/06/22 12:06:19;;;;;;;1.60;1.30;;;26.10;72.10;;;;;;4875948;29;20465;-62
2022/06/22 12:09:08;;;;;;;2.42;1.65;;;26.00;71.90;;;;;;4875828;29;20061;-64
2022/06/22 12:12:10;;;;;;;3.60;1.70;;;25.80;71.70;;;;;;4821478;29;20050;-64
2022/06/22 12:15:08;;;;;;;2.83;2.00;;;25.70;71.90;;;;;;4820996;29;20046;-63
2022/06/22 12:17:42;;;;;;;4.18;1.42;;;25.50;72.50;;;;;;4820205;29;20086;-63
2022/06/22 12:20:32;;;;;;;2.67;1.40;;;25.40;73.30;;;;;;4805306;29;20066;-64
2022/06/22 12:23:13;;;;;;;6.25;1.75;;;25.40;73.50;;;;;;4829225;29;20070;-64
2022/06/22 12:26:08;;;;;;;4.95;1.30;;;25.40;71.60;;;;;;4839350;29;20038;-63
2022/06/22 12:29:01;;;;;;;6.05;1.83;;;25.10;73.30;;;;;;4838074;29;20070;-64
2022/06/22 12:31:36;;;;;;;4.35;1.70;;;25.00;71.30;;;;;;4839890;29;20414;-63
2022/06/22 12:34:25;;;;;;;3.67;1.42;;;24.90;74.00;;;;;;4822898;29;20060;-63
2022/06/22 12:36:56;;;;;;;6.68;1.50;;;24.90;73.30;;;;;;4837484;29;20050;-63
2022/06/22 12:39:33;;;;;;;3.13;1.23;;;24.90;72.30;;;;;;4837953;29;20474;-63
2022/06/22 12:42:11;;;;;;;4.60;1.40;;;24.90;72.40;;;;;;4920588;28;20053;-63
2022/06/22 12:45:07;;;;;;;3.08;1.20;;;24.90;71.70;;;;;;4990317;28;20041;-63
2022/06/22 12:47:59;;;;;;;3.35;1.23;;;24.90;71.80;;;;;;4994495;28;20492;-64
2022/06/22 12:50:49;;;;;;;3.05;1.10;;;24.80;71.20;;;;;;5070951;28;20048;-63
2022/06/22 12:53:27;;;;;;;3.28;1.23;;;24.80;71.40;;;;;;5069600;28;20059;-64
2022/06/22 12:56:02;;;;;;;5.82;1.17;;;24.90;70.50;;;;;;5072241;28;20087;-64
2022/06/22 12:58:33;;;;;;;2.50;1.20;;;24.80;70.00;;;;;;5070826;28;20055;-63
2022/06/22 13:00:59;;;;;;;4.07;1.25;;;24.80;71.20;;;;;;5068500;28;20168;-62
2022/06/22 13:03:32;;;;;;;3.20;1.40;;;24.80;70.80;;;;;;5053771;28;20070;-62
2022/06/22 13:05:58;;;;;;;2.72;1.40;;;24.70;70.60;;;;;;5070555;28;20041;-63
2022/06/22 13:08:26;;;;;;;2.38;1.30;;;24.70;70.20;;;;;;5068452;28;20177;-63
2022/06/22 13:10:57;;;;;;;2.53;1.40;;;24.70;71.00;;;;;;5070307;28;20045;-62
2022/06/22 13:13:42;;;;;;;4.93;1.27;;;24.70;71.50;;;;;;5071940;28;20059;-62
2022/06/22 13:16:22;;;;;;;3.10;1.30;;;24.60;71.50;;;;;;5071174;28;20039;-64
2022/06/22 13:19:06;;;;;;;2.50;1.35;;;24.50;72.30;;;;;;5071255;28;20075;-63
2022/06/22 13:21:42;;;;;;;2.25;1.60;;;24.50;73.40;;;;;;5070176;28;20055;-62
2022/06/22 13:24:46;;;;;;;2.65;1.33;;;24.60;72.30;;;;;;5070469;28;20048;-62
2022/06/22 13:27:14;;;;;;;3.80;1.23;;;24.60;73.20;;;;;;5029140;28;20596;-63
2022/06/22 13:29:49;;;;;;;6.20;1.33;;;24.60;71.70;;;;;;5029109;28;20050;-64
2022/06/22 13:32:17;;;;;;;3.72;1.23;;;24.60;70.50;;;;;;5012766;28;20103;-63
2022/06/22 13:35:20;;;;;;;3.22;1.20;;;24.60;70.40;;;;;;5029150;28;20049;-62
2022/06/22 13:37:46;;;;;;;3.90;1.17;;;24.50;69.90;;;;;;4950528;29;20055;-63
2022/06/22 13:40:34;;;;;;;1.00;0.90;;;24.60;70.20;;;;;;4950906;29;20421;-63
2022/06/22 13:43:29;;;;;;;2.28;1.05;;;24.50;70.30;;;;;;4934873;29;20059;-63
2022/06/22 13:46:03;;;;;;;1.58;0.90;;;24.50;69.80;;;;;;4935039;29;20039;-63
2022/06/22 13:48:50;;;;;;;3.58;1.30;;;24.40;70.30;;;;;;4950898;29;20380;-62
2022/06/22 13:51:52;;;;;;;2.90;1.10;;;24.40;70.50;;;;;;4934872;29;20093;-63
2022/06/22 13:54:37;;;;;;;3.35;1.50;;;24.40;70.80;;;;;;4951091;29;20126;-63
2022/06/22 13:57:22;;;;;;;2.00;1.00;;;24.40;70.00;;;;;;4950779;29;20047;-62
2022/06/22 13:59:53;;;;;;;3.03;1.30;;;24.30;70.20;;;;;;4950319;29;20035;-62
2022/06/22 14:02:26;;;;;;;3.60;1.17;;;24.30;71.30;;;;;;4950852;29;20101;-62
2022/06/22 14:05:01;;;;;;;2.72;1.20;;;24.30;70.50;;;;;;5001359;28;20822;-63
2022/06/22 14:07:50;;;;;;;1.77;1.20;;;24.30;70.60;;;;;;5008208;28;20042;-63
2022/06/22 14:10:35;;;;;;;3.17;1.58;;;24.40;73.50;;;;;;4992423;28;20405;-64
2022/06/22 14:13:39;;;;;;;4.90;1.80;;;24.30;74.70;;;;;;5007830;28;20385;-64
2022/06/22 14:16:08;;;;;;;3.00;1.35;;;24.30;74.40;;;;;;5070452;28;20388;-63
2022/06/22 14:18:56;;;;;;;3.95;1.83;;;24.20;74.40;;;;;;5070685;28;20040;-64